createdAt,value
2023-01-10T00:00:20.617Z,0.00
2023-01-10T00:01:20.597Z,0.00
2023-01-10T00:02:20.612Z,0.00
2023-01-10T00:03:20.618Z,0.00
2023-01-10T00:04:20.707Z,0.00
2023-01-10T00:05:20.703Z,0.00
2023-01-10T00:06:20.706Z,0.00
2023-01-10T00:07:20.763Z,0.00
2023-01-10T00:08:20.752Z,0.00
2023-01-10T00:09:20.754Z,0.00
2023-01-10T00:10:20.744Z,0.00
2023-01-10T00:11:20.821Z,0.00
2023-01-10T00:12:20.809Z,0.00
2023-01-10T00:13:20.872Z,0.00
2023-01-10T00:14:20.847Z,0.00
2023-01-10T00:15:20.894Z,0.00
2023-01-10T00:16:21.034Z,0.00
2023-01-10T00:17:20.989Z,0.00
2023-01-10T00:18:21.000Z,0.00
2023-01-10T00:19:21.079Z,0.00
2023-01-10T00:20:21.068Z,0.00
2023-01-10T00:21:21.123Z,0.00
2023-01-10T00:22:21.198Z,0.00
2023-01-10T00:23:21.237Z,0.00
2023-01-10T00:24:21.303Z,0.00
2023-01-10T00:25:21.304Z,0.00
2023-01-10T00:26:21.323Z,0.00
2023-01-10T00:27:21.381Z,0.00
2023-01-10T00:28:21.434Z,0.00
2023-01-10T00:29:21.471Z,0.00
2023-01-10T00:30:21.493Z,0.00
2023-01-10T00:31:21.525Z,0.00
2023-01-10T00:32:21.521Z,0.00
2023-01-10T00:33:21.579Z,0.00
2023-01-10T00:34:21.583Z,0.00
2023-01-10T00:35:21.654Z,0.00
2023-01-10T00:36:21.644Z,0.00
2023-01-10T00:37:21.644Z,0.00
2023-01-10T00:38:21.646Z,0.00
2023-01-10T00:39:21.651Z,0.00
2023-01-10T00:40:21.650Z,0.00
2023-01-10T00:41:21.685Z,0.00
2023-01-10T00:42:21.700Z,0.00
2023-01-10T00:43:21.755Z,0.00
2023-01-10T00:44:21.798Z,0.00
2023-01-10T00:45:21.858Z,0.00
2023-01-10T00:46:21.931Z,0.00
2023-01-10T00:47:21.879Z,0.00
2023-01-10T00:48:21.888Z,0.00
2023-01-10T00:49:21.878Z,0.00
2023-01-10T00:50:21.912Z,0.00
2023-01-10T00:51:21.950Z,0.00
2023-01-10T00:52:21.969Z,0.00
2023-01-10T00:53:21.988Z,0.00
2023-01-10T00:54:22.053Z,0.00
2023-01-10T00:55:22.068Z,0.00
2023-01-10T00:56:22.109Z,0.00
2023-01-10T00:57:22.109Z,0.00
2023-01-10T00:58:22.139Z,0.00
2023-01-10T00:59:22.190Z,0.00
2023-01-10T01:00:22.160Z,0.00
2023-01-10T01:01:22.342Z,0.00
2023-01-10T01:02:22.392Z,0.00
2023-01-10T01:03:22.264Z,0.00
2023-01-10T01:04:22.260Z,0.00
2023-01-10T01:05:22.248Z,0.00
2023-01-10T01:06:22.322Z,0.00
2023-01-10T01:07:22.352Z,0.00
2023-01-10T01:08:22.411Z,0.00
2023-01-10T01:09:22.468Z,0.00
2023-01-10T01:10:22.463Z,0.00
2023-01-10T01:11:22.524Z,0.00
2023-01-10T01:12:22.542Z,0.00
2023-01-10T01:13:22.563Z,0.00
2023-01-10T01:14:22.583Z,0.00
2023-01-10T01:15:22.605Z,0.00
2023-01-10T01:16:22.639Z,0.00
2023-01-10T01:17:22.673Z,0.00
2023-01-10T01:18:22.694Z,0.00
2023-01-10T01:19:22.752Z,0.00
2023-01-10T01:20:22.803Z,0.00
2023-01-10T01:21:22.884Z,0.00
2023-01-10T01:22:22.888Z,0.00
2023-01-10T01:23:22.903Z,0.00
2023-01-10T01:24:22.967Z,0.00
2023-01-10T01:25:23.040Z,0.00
2023-01-10T01:26:23.063Z,0.00
2023-01-10T01:27:23.057Z,0.00
2023-01-10T01:28:23.106Z,0.00
2023-01-10T01:29:23.803Z,0.00
2023-01-10T01:30:23.198Z,0.00
2023-01-10T01:31:23.274Z,0.00
2023-01-10T01:32:23.243Z,0.00
2023-01-10T01:33:23.296Z,0.00
2023-01-10T01:34:23.356Z,0.00
2023-01-10T01:35:23.357Z,0.00
2023-01-10T01:36:23.351Z,0.00
2023-01-10T01:37:23.348Z,0.00
2023-01-10T01:38:23.348Z,0.00
2023-01-10T01:39:23.398Z,0.00
2023-01-10T01:40:23.447Z,0.00
2023-01-10T01:41:23.488Z,0.00
2023-01-10T01:42:23.472Z,0.00
2023-01-10T01:43:23.477Z,0.00
2023-01-10T01:44:23.478Z,0.00
2023-01-10T01:45:23.510Z,0.00
2023-01-10T01:46:23.571Z,0.00
2023-01-10T01:47:23.599Z,0.00
2023-01-10T01:48:23.624Z,0.00
2023-01-10T01:49:23.670Z,0.00
2023-01-10T01:50:23.738Z,0.00
2023-01-10T01:51:23.780Z,0.00
2023-01-10T01:52:23.789Z,0.00
2023-01-10T01:53:23.795Z,0.00
2023-01-10T01:54:23.799Z,0.00
2023-01-10T01:55:23.791Z,0.00
2023-01-10T01:56:23.813Z,0.00
2023-01-10T01:57:23.803Z,0.00
2023-01-10T01:58:23.831Z,0.00
2023-01-10T01:59:23.856Z,0.00
2023-01-10T02:00:23.914Z,0.00
2023-01-10T02:01:24.120Z,0.00
2023-01-10T02:02:24.030Z,0.00
2023-01-10T02:03:24.077Z,0.00
2023-01-10T02:04:24.115Z,0.00
2023-01-10T02:05:24.055Z,0.00
2023-01-10T02:06:24.063Z,0.00
2023-01-10T02:07:24.130Z,0.00
2023-01-10T02:08:24.136Z,0.00
2023-01-10T02:09:24.141Z,0.00
2023-01-10T02:10:24.164Z,0.00
2023-01-10T02:11:24.864Z,0.00
2023-01-10T02:12:24.239Z,0.00
2023-01-10T02:13:24.307Z,0.00
2023-01-10T02:14:24.333Z,0.00
2023-01-10T02:15:24.334Z,0.00
2023-01-10T02:16:24.348Z,0.00
2023-01-10T02:17:24.350Z,0.00
2023-01-10T02:18:24.426Z,0.00
2023-01-10T02:19:24.482Z,0.00
2023-01-10T02:20:24.568Z,0.00
2023-01-10T02:21:24.576Z,0.00
2023-01-10T02:22:24.569Z,0.00
2023-01-10T02:23:24.628Z,0.00
2023-01-10T02:24:24.635Z,0.00
2023-01-10T02:25:24.644Z,0.00
2023-01-10T02:26:24.672Z,0.00
2023-01-10T02:27:25.995Z,0.00
2023-01-10T02:28:24.765Z,0.00
2023-01-10T02:29:24.778Z,0.00
2023-01-10T02:30:24.760Z,0.00
2023-01-10T02:31:24.837Z,0.00
2023-01-10T02:32:40.615Z,0.00
2023-01-10T02:33:24.820Z,0.00
2023-01-10T02:34:24.887Z,0.00
2023-01-10T02:35:24.943Z,0.00
2023-01-10T02:36:25.011Z,0.00
2023-01-10T02:37:25.050Z,0.00
2023-01-10T02:38:25.100Z,0.00
2023-01-10T02:39:25.117Z,0.00
2023-01-10T02:40:25.151Z,0.00
2023-01-10T02:41:25.162Z,0.00
2023-01-10T02:42:25.181Z,0.00
2023-01-10T02:43:25.171Z,0.00
2023-01-10T02:44:25.191Z,0.00
2023-01-10T02:45:25.181Z,0.00
2023-01-10T02:46:25.547Z,0.00
2023-01-10T02:47:25.306Z,0.00
2023-01-10T02:48:25.344Z,0.00
2023-01-10T02:49:25.416Z,0.00
2023-01-10T02:50:25.428Z,0.00
2023-01-10T02:51:25.401Z,0.00
2023-01-10T02:52:25.464Z,0.00
2023-01-10T02:53:25.541Z,0.00
2023-01-10T02:54:25.588Z,0.00
2023-01-10T02:55:25.592Z,0.00
2023-01-10T02:56:25.653Z,0.00
2023-01-10T02:57:25.704Z,0.00
2023-01-10T02:58:25.779Z,0.00
2023-01-10T02:59:25.872Z,0.00
2023-01-10T03:00:25.844Z,0.00
2023-01-10T03:01:26.073Z,0.00
2023-01-10T03:02:25.923Z,0.00
2023-01-10T03:03:25.989Z,0.00
2023-01-10T03:04:25.989Z,0.00
2023-01-10T03:05:25.976Z,0.00
2023-01-10T03:06:26.033Z,0.00
2023-01-10T03:07:26.017Z,0.00
2023-01-10T03:08:26.100Z,0.00
2023-01-10T03:09:26.066Z,0.00
2023-01-10T03:10:26.095Z,0.00
2023-01-10T03:11:26.140Z,0.00
2023-01-10T03:12:26.220Z,0.00
2023-01-10T03:13:26.194Z,0.00
2023-01-10T03:14:26.247Z,0.00
2023-01-10T03:15:26.318Z,0.00
2023-01-10T03:16:26.367Z,0.00
2023-01-10T03:17:26.387Z,0.00
2023-01-10T03:18:26.440Z,0.00
2023-01-10T03:19:26.457Z,0.00
2023-01-10T03:20:26.532Z,0.00
2023-01-10T03:21:26.539Z,0.00
2023-01-10T03:22:26.581Z,0.00
2023-01-10T03:23:26.605Z,0.00
2023-01-10T03:24:26.628Z,0.00
2023-01-10T03:25:26.702Z,0.00
2023-01-10T03:26:26.690Z,0.00
2023-01-10T03:27:26.752Z,0.00
2023-01-10T03:28:26.802Z,0.00
2023-01-10T03:29:26.810Z,0.00
2023-01-10T03:30:26.906Z,0.00
2023-01-10T03:31:26.921Z,0.00
2023-01-10T03:32:26.882Z,0.00
2023-01-10T03:33:26.888Z,0.00
2023-01-10T03:34:26.925Z,0.00
2023-01-10T03:35:26.982Z,0.00
2023-01-10T03:36:27.017Z,0.00
2023-01-10T03:37:27.084Z,0.00
2023-01-10T03:38:27.087Z,0.00
2023-01-10T03:39:27.154Z,0.00
2023-01-10T03:40:27.219Z,0.00
2023-01-10T03:41:27.224Z,0.00
2023-01-10T03:42:27.239Z,0.00
2023-01-10T03:43:27.203Z,0.00
2023-01-10T03:44:27.233Z,0.00
2023-01-10T03:45:27.263Z,0.00
2023-01-10T03:46:27.316Z,0.00
2023-01-10T03:47:27.333Z,0.00
2023-01-10T03:48:27.376Z,0.00
2023-01-10T03:49:27.404Z,0.00
2023-01-10T03:50:27.464Z,0.00
2023-01-10T03:51:27.460Z,0.00
2023-01-10T03:52:27.516Z,0.00
2023-01-10T03:53:27.573Z,0.00
2023-01-10T03:54:27.627Z,0.00
2023-01-10T03:55:27.656Z,0.00
2023-01-10T03:56:27.698Z,0.00
2023-01-10T03:57:27.734Z,0.00
2023-01-10T03:58:27.717Z,0.00
2023-01-10T03:59:27.737Z,0.00
2023-01-10T04:00:27.767Z,0.00
2023-01-10T04:01:27.950Z,0.00
2023-01-10T04:02:27.837Z,0.00
2023-01-10T04:03:27.905Z,0.00
2023-01-10T04:04:27.928Z,0.00
2023-01-10T04:05:27.947Z,0.00
2023-01-10T04:06:28.015Z,0.00
2023-01-10T04:07:28.078Z,0.00
2023-01-10T04:08:28.139Z,0.00
2023-01-10T04:09:28.200Z,0.00
2023-01-10T04:10:28.255Z,0.00
2023-01-10T04:11:28.236Z,0.00
2023-01-10T04:12:28.261Z,0.00
2023-01-10T04:13:28.355Z,0.00
2023-01-10T04:14:28.359Z,0.00
2023-01-10T04:15:28.404Z,0.00
2023-01-10T04:16:28.401Z,0.00
2023-01-10T04:17:28.430Z,0.00
2023-01-10T04:18:28.480Z,0.00
2023-01-10T04:19:28.465Z,0.00
2023-01-10T04:20:28.470Z,0.00
2023-01-10T04:21:28.470Z,0.00
2023-01-10T04:22:28.482Z,0.00
2023-01-10T04:23:28.515Z,0.00
2023-01-10T04:24:28.520Z,0.00
2023-01-10T04:25:28.584Z,0.00
2023-01-10T04:26:28.609Z,0.00
2023-01-10T04:27:28.672Z,0.00
2023-01-10T04:28:28.706Z,0.00
2023-01-10T04:29:28.724Z,0.00
2023-01-10T04:30:28.791Z,0.00
2023-01-10T04:31:28.828Z,0.00
2023-01-10T04:32:28.866Z,0.00
2023-01-10T04:33:28.944Z,0.00
2023-01-10T04:34:28.927Z,0.00
2023-01-10T04:35:28.973Z,0.00
2023-01-10T04:36:28.973Z,0.00
2023-01-10T04:37:29.046Z,0.00
2023-01-10T04:38:29.105Z,0.00
2023-01-10T04:39:29.164Z,0.00
2023-01-10T04:40:29.238Z,0.00
2023-01-10T04:41:29.304Z,0.00
2023-01-10T04:42:29.375Z,0.00
2023-01-10T04:43:29.397Z,0.00
2023-01-10T04:44:29.394Z,0.00
2023-01-10T04:45:29.477Z,0.00
2023-01-10T04:46:29.496Z,0.00
2023-01-10T04:47:29.588Z,0.00
2023-01-10T04:48:29.566Z,0.00
2023-01-10T04:49:29.557Z,0.00
2023-01-10T04:50:29.634Z,0.00
2023-01-10T04:51:29.657Z,0.00
2023-01-10T04:52:29.683Z,0.00
2023-01-10T04:53:29.707Z,0.00
2023-01-10T04:54:29.777Z,0.00
2023-01-10T04:55:29.808Z,0.00
2023-01-10T04:56:29.811Z,0.00
2023-01-10T04:57:29.808Z,0.00
2023-01-10T04:58:29.829Z,0.00
2023-01-10T04:59:29.908Z,0.00
2023-01-10T05:00:29.926Z,0.00
2023-01-10T05:01:29.999Z,0.00
2023-01-10T05:02:30.125Z,0.00
2023-01-10T05:03:30.059Z,0.00
2023-01-10T05:04:30.153Z,0.00
2023-01-10T05:05:30.188Z,0.00
2023-01-10T05:06:30.198Z,0.00
2023-01-10T05:07:30.190Z,0.00
2023-01-10T05:08:30.189Z,0.00
2023-01-10T05:09:30.221Z,0.00
2023-01-10T05:10:30.220Z,0.00
2023-01-10T05:11:30.275Z,0.00
2023-01-10T05:12:30.270Z,0.00
2023-01-10T05:13:30.270Z,0.00
2023-01-10T05:14:30.293Z,0.00
2023-01-10T05:15:30.299Z,0.00
2023-01-10T05:16:30.378Z,0.00
2023-01-10T05:17:30.304Z,0.00
2023-01-10T05:18:30.358Z,0.00
2023-01-10T05:19:30.414Z,0.00
2023-01-10T05:20:30.462Z,0.00
2023-01-10T05:21:30.521Z,0.00
2023-01-10T05:22:30.583Z,0.00
2023-01-10T05:23:30.658Z,0.00
2023-01-10T05:24:30.644Z,0.00
2023-01-10T05:25:30.689Z,0.00
2023-01-10T05:26:30.743Z,0.00
2023-01-10T05:27:30.755Z,0.00
2023-01-10T05:28:30.825Z,0.00
2023-01-10T05:29:30.858Z,0.00
2023-01-10T05:30:30.854Z,0.00
2023-01-10T05:31:30.938Z,0.00
2023-01-10T05:32:30.931Z,0.00
2023-01-10T05:33:31.005Z,0.00
2023-01-10T05:34:31.004Z,0.00
2023-01-10T05:35:31.064Z,0.00
2023-01-10T05:36:31.089Z,0.00
2023-01-10T05:37:31.095Z,0.00
2023-01-10T05:38:31.128Z,0.00
2023-01-10T05:39:31.098Z,0.00
2023-01-10T05:40:31.096Z,0.00
2023-01-10T05:41:31.112Z,0.00
2023-01-10T05:42:31.101Z,0.00
2023-01-10T05:43:31.116Z,0.00
2023-01-10T05:44:31.126Z,0.00
2023-01-10T05:45:31.149Z,0.00
2023-01-10T05:46:31.187Z,0.00
2023-01-10T05:47:31.227Z,0.00
2023-01-10T05:48:31.301Z,0.00
2023-01-10T05:49:33.421Z,0.00
2023-01-10T05:50:31.387Z,0.00
2023-01-10T05:51:31.444Z,0.00
2023-01-10T05:52:31.468Z,0.00
2023-01-10T05:53:31.489Z,0.00
2023-01-10T05:54:31.604Z,0.00
2023-01-10T05:55:31.567Z,0.00
2023-01-10T05:56:31.619Z,0.00
2023-01-10T05:57:31.670Z,0.00
2023-01-10T05:58:31.685Z,0.00
2023-01-10T05:59:31.702Z,0.00
2023-01-10T06:00:31.730Z,0.00
2023-01-10T06:01:31.856Z,0.00
2023-01-10T06:02:31.893Z,0.00
2023-01-10T06:03:31.832Z,0.00
2023-01-10T06:04:31.865Z,0.00
2023-01-10T06:05:31.915Z,0.00
2023-01-10T06:06:31.904Z,0.00
2023-01-10T06:07:31.912Z,0.00
2023-01-10T06:08:31.983Z,0.00
2023-01-10T06:09:32.043Z,0.00
2023-01-10T06:10:32.064Z,0.00
2023-01-10T06:11:32.071Z,0.00
2023-01-10T06:12:32.104Z,0.00
2023-01-10T06:13:32.132Z,0.00
2023-01-10T06:14:32.123Z,0.00
2023-01-10T06:15:32.163Z,0.00
2023-01-10T06:16:32.242Z,0.00
2023-01-10T06:17:32.264Z,0.00
2023-01-10T06:18:32.300Z,0.00
2023-01-10T06:19:32.317Z,0.00
2023-01-10T06:20:32.390Z,0.00
2023-01-10T06:21:32.444Z,0.00
2023-01-10T06:22:32.505Z,0.00
2023-01-10T06:23:32.529Z,0.00
2023-01-10T06:24:32.509Z,0.00
2023-01-10T06:25:32.530Z,0.00
2023-01-10T06:26:32.576Z,0.00
2023-01-10T06:27:32.597Z,0.00
2023-01-10T06:28:32.642Z,0.00
2023-01-10T06:29:32.660Z,0.00
2023-01-10T06:30:32.691Z,0.00
2023-01-10T06:31:32.762Z,0.00
2023-01-10T06:32:32.685Z,0.00
2023-01-10T06:33:32.695Z,0.00
2023-01-10T06:34:32.739Z,0.00
2023-01-10T06:35:32.787Z,0.00
2023-01-10T06:36:32.775Z,0.00
2023-01-10T06:37:32.788Z,0.00
2023-01-10T06:38:32.867Z,0.00
2023-01-10T06:39:32.869Z,0.00
2023-01-10T06:40:32.910Z,0.00
2023-01-10T06:41:32.930Z,0.00
2023-01-10T06:42:32.959Z,0.00
2023-01-10T06:43:33.020Z,0.00
2023-01-10T06:44:33.009Z,0.00
2023-01-10T06:45:33.050Z,0.00
2023-01-10T06:46:33.110Z,0.00
2023-01-10T06:47:33.099Z,0.00
2023-01-10T06:48:33.199Z,0.00
2023-01-10T06:49:33.160Z,0.00
2023-01-10T06:50:33.214Z,0.00
2023-01-10T06:51:33.218Z,0.00
2023-01-10T06:52:33.242Z,0.00
2023-01-10T06:53:33.248Z,0.00
2023-01-10T06:54:33.291Z,0.00
2023-01-10T06:55:33.375Z,0.00
2023-01-10T06:56:33.376Z,0.00
2023-01-10T06:57:33.441Z,4.00
2023-01-10T06:58:33.465Z,4.00
2023-01-10T06:59:33.542Z,4.00
2023-01-10T07:00:33.600Z,0.00
2023-01-10T07:01:33.675Z,0.00
2023-01-10T07:02:33.654Z,0.00
2023-01-10T07:03:33.698Z,4.00
2023-01-10T07:04:33.708Z,4.00
2023-01-10T07:05:33.752Z,4.00
2023-01-10T07:06:33.779Z,4.00
2023-01-10T07:27:37.546Z,100.00
2023-01-10T07:28:37.564Z,116.00
2023-01-10T07:29:37.597Z,112.00
2023-01-10T07:30:37.598Z,164.00
2023-01-10T07:31:37.629Z,148.00
2023-01-10T07:32:37.613Z,128.00
2023-01-10T07:33:37.663Z,104.00
2023-01-10T07:34:37.680Z,108.00
2023-01-10T07:35:37.729Z,108.00
2023-01-10T07:36:39.383Z,128.00
2023-01-10T07:37:37.797Z,132.00
2023-01-10T07:38:37.812Z,140.00
2023-01-10T07:39:37.809Z,124.00
2023-01-10T07:40:37.859Z,136.00
2023-01-10T07:41:37.933Z,136.00
2023-01-10T07:42:37.889Z,160.00
2023-01-10T07:43:37.935Z,148.00
2023-01-10T07:44:37.990Z,144.00
2023-01-10T07:45:37.999Z,164.00
2023-01-10T07:46:38.119Z,200.00
2023-01-10T07:47:38.081Z,200.00
2023-01-10T07:48:38.108Z,188.00
2023-01-10T07:49:38.131Z,224.00
2023-01-10T07:50:38.170Z,232.00
2023-01-10T07:51:38.172Z,288.00
2023-01-10T07:52:38.225Z,308.00
2023-01-10T07:53:38.263Z,344.00
2023-01-10T07:54:38.322Z,320.00
2023-01-10T07:55:38.408Z,296.00
2023-01-10T07:56:38.333Z,280.00
2023-01-10T07:57:38.333Z,308.00
2023-01-10T07:58:38.437Z,300.00
2023-01-10T07:59:38.404Z,312.00
2023-01-10T08:00:38.446Z,320.00
2023-01-10T08:01:38.484Z,332.00
2023-01-10T08:02:38.603Z,352.00
2023-01-10T08:03:38.727Z,412.00
2023-01-10T08:04:38.604Z,524.00
2023-01-10T08:05:38.605Z,720.00
2023-01-10T08:06:38.665Z,908.00
2023-01-10T08:07:38.693Z,992.00
2023-01-10T08:08:38.864Z,892.00
2023-01-10T08:09:38.776Z,1152.00
2023-01-10T08:10:38.788Z,1160.00
2023-01-10T08:11:40.744Z,1148.00
2023-01-10T08:12:38.828Z,1160.00
2023-01-10T08:13:38.884Z,1020.00
2023-01-10T08:14:39.010Z,1280.00
2023-01-10T08:15:39.012Z,1496.00
2023-01-10T08:16:38.997Z,1616.00
2023-01-10T08:17:39.007Z,1520.00
2023-01-10T08:18:38.986Z,1516.00
2023-01-10T08:19:39.037Z,1464.00
2023-01-10T08:20:39.057Z,1148.00
2023-01-10T08:21:39.089Z,1024.00
2023-01-10T08:22:39.139Z,1028.00
2023-01-10T08:23:39.312Z,1196.00
2023-01-10T08:24:39.169Z,1140.00
2023-01-10T08:25:39.673Z,904.00
2023-01-10T08:26:39.200Z,764.00
2023-01-10T08:27:39.211Z,652.00
2023-01-10T08:28:39.201Z,728.00
2023-01-10T08:29:39.190Z,796.00
2023-01-10T08:30:39.181Z,932.00
2023-01-10T08:31:39.253Z,884.00
2023-01-10T08:32:39.272Z,788.00
2023-01-10T08:33:39.291Z,776.00
2023-01-10T08:34:39.340Z,764.00
2023-01-10T08:35:39.381Z,736.00
2023-01-10T08:36:39.382Z,896.00
2023-01-10T08:37:39.454Z,788.00
2023-01-10T08:38:39.460Z,748.00
2023-01-10T08:39:39.541Z,668.00
2023-01-10T08:40:39.543Z,536.00
2023-01-10T08:41:39.586Z,504.00
2023-01-10T08:42:39.639Z,532.00
2023-01-10T08:43:39.695Z,580.00
2023-01-10T08:44:39.694Z,528.00
2023-01-10T08:45:39.743Z,452.00
2023-01-10T08:46:39.808Z,448.00
2023-01-10T08:47:39.813Z,428.00
2023-01-10T08:48:39.878Z,424.00
2023-01-10T08:49:39.908Z,428.00
2023-01-10T08:50:39.882Z,408.00
2023-01-10T08:51:39.957Z,388.00
2023-01-10T08:52:40.005Z,328.00
2023-01-10T08:53:40.023Z,324.00
2023-01-10T08:54:40.019Z,376.00
2023-01-10T08:55:40.041Z,428.00
2023-01-10T08:56:40.058Z,488.00
2023-01-10T08:57:40.057Z,540.00
2023-01-10T08:58:40.177Z,520.00
2023-01-10T08:59:40.187Z,512.00
2023-01-10T09:00:40.259Z,552.00
2023-01-10T09:01:40.370Z,608.00
2023-01-10T09:02:40.360Z,588.00
2023-01-10T09:03:40.383Z,552.00
2023-01-10T09:04:40.411Z,596.00
2023-01-10T09:05:40.470Z,672.00
2023-01-10T09:06:40.532Z,884.00
2023-01-10T09:07:40.563Z,980.00
2023-01-10T09:08:40.569Z,1160.00
2023-01-10T09:09:40.556Z,1236.00
2023-01-10T09:10:41.260Z,1092.00
2023-01-10T09:11:41.867Z,1112.00
2023-01-10T09:12:40.611Z,1112.00
2023-01-10T09:13:40.653Z,1016.00
2023-01-10T09:14:40.679Z,1180.00
2023-01-10T09:15:40.675Z,1204.00
2023-01-10T09:16:40.682Z,1368.00
2023-01-10T09:17:40.765Z,1432.00
2023-01-10T09:18:40.717Z,1372.00
2023-01-10T09:19:40.833Z,1420.00
2023-01-10T09:20:40.860Z,1524.00
2023-01-10T09:21:40.800Z,1440.00
2023-01-10T09:22:40.828Z,1380.00
2023-01-10T09:23:40.874Z,1248.00
2023-01-10T09:24:40.894Z,1168.00
2023-01-10T09:25:40.916Z,1124.00
2023-01-10T09:26:40.944Z,1196.00
2023-01-10T09:27:41.041Z,1360.00
2023-01-10T09:28:41.055Z,1256.00
2023-01-10T09:29:41.056Z,1352.00
2023-01-10T09:30:41.049Z,1888.00
2023-01-10T09:31:41.118Z,1976.00
2023-01-10T09:32:41.125Z,1888.00
2023-01-10T09:33:46.621Z,1836.00
2023-01-10T09:34:41.277Z,1652.00
2023-01-10T09:35:41.287Z,1632.00
2023-01-10T09:36:41.430Z,1896.00
2023-01-10T09:37:41.319Z,2008.00
2023-01-10T09:38:41.373Z,2156.00
2023-01-10T09:39:41.317Z,3004.00
2023-01-10T09:40:41.381Z,2912.00
2023-01-10T09:41:41.397Z,2544.00
2023-01-10T09:42:41.419Z,2224.00
2023-01-10T09:43:41.428Z,2620.00
2023-01-10T09:44:41.443Z,2484.00
2023-01-10T09:45:41.455Z,2376.00
2023-01-10T09:46:41.525Z,2340.00
2023-01-10T09:47:41.508Z,2012.00
2023-01-10T09:48:41.519Z,1612.00
2023-01-10T09:49:41.546Z,1724.00
2023-01-10T09:50:41.580Z,1528.00
2023-01-10T09:51:41.600Z,1412.00
2023-01-10T09:52:41.620Z,1252.00
2023-01-10T09:53:41.649Z,1288.00
2023-01-10T09:54:41.716Z,1340.00
2023-01-10T09:55:41.725Z,1288.00
2023-01-10T09:56:41.738Z,1216.00
2023-01-10T09:57:41.789Z,1168.00
2023-01-10T09:58:41.828Z,1248.00
2023-01-10T09:59:41.858Z,1168.00
2023-01-10T10:00:41.884Z,1040.00
2023-01-10T10:01:41.950Z,952.00
2023-01-10T10:02:42.006Z,940.00
2023-01-10T10:03:42.095Z,1060.00
2023-01-10T10:04:42.055Z,1068.00
2023-01-10T10:05:42.083Z,1060.00
2023-01-10T10:06:42.179Z,956.00
2023-01-10T10:07:42.213Z,1032.00
2023-01-10T10:08:42.265Z,1112.00
2023-01-10T10:09:42.330Z,1460.00
2023-01-10T10:10:42.320Z,1600.00
2023-01-10T10:11:42.364Z,1312.00
2023-01-10T10:12:42.354Z,1184.00
2023-01-10T10:13:42.409Z,1068.00
2023-01-10T10:14:42.433Z,1156.00
2023-01-10T10:15:42.414Z,1240.00
2023-01-10T10:16:42.524Z,1304.00
2023-01-10T10:17:42.492Z,1384.00
2023-01-10T10:18:42.524Z,1408.00
2023-01-10T10:19:42.536Z,1420.00
2023-01-10T10:20:42.556Z,1440.00
2023-01-10T10:21:42.566Z,1324.00
2023-01-10T10:22:42.617Z,1296.00
2023-01-10T10:23:42.617Z,1388.00
2023-01-10T10:24:42.678Z,1256.00
2023-01-10T10:25:42.681Z,1268.00
2023-01-10T10:26:42.737Z,1204.00
2023-01-10T10:27:42.786Z,1348.00
2023-01-10T10:28:53.559Z,1668.00
2023-01-10T10:29:42.852Z,1840.00
2023-01-10T10:30:42.912Z,1644.00
2023-01-10T10:31:43.004Z,1348.00
2023-01-10T10:32:42.966Z,1524.00
2023-01-10T10:33:42.956Z,1628.00
2023-01-10T10:34:43.004Z,1396.00
2023-01-10T10:35:43.023Z,1160.00
2023-01-10T10:36:43.009Z,1292.00
2023-01-10T10:37:43.057Z,1456.00
2023-01-10T10:38:43.064Z,1540.00
2023-01-10T10:39:43.142Z,1600.00
2023-01-10T10:40:43.187Z,1344.00
2023-01-10T10:41:43.219Z,1256.00
2023-01-10T10:42:43.211Z,1668.00
2023-01-10T10:43:43.227Z,1568.00
2023-01-10T10:44:43.307Z,1536.00
2023-01-10T10:45:43.357Z,1628.00
2023-01-10T10:46:43.293Z,1444.00
2023-01-10T10:47:43.334Z,1676.00
2023-01-10T10:48:43.360Z,2036.00
2023-01-10T10:49:43.411Z,1936.00
2023-01-10T10:50:43.483Z,1964.00
2023-01-10T10:51:43.514Z,2252.00
2023-01-10T10:52:43.584Z,2644.00
2023-01-10T10:53:43.546Z,2280.00
2023-01-10T10:54:43.553Z,2148.00
2023-01-10T10:55:43.577Z,2968.00
2023-01-10T10:56:43.575Z,3540.00
2023-01-10T10:57:58.950Z,3232.00
2023-01-10T10:58:43.673Z,2544.00
2023-01-10T10:59:43.713Z,2412.00
2023-01-10T11:00:43.821Z,2444.00
2023-01-10T11:01:43.942Z,2412.00
2023-01-10T11:02:43.860Z,2660.00
2023-01-10T11:03:43.876Z,2756.00
2023-01-10T11:04:43.908Z,2756.00
2023-01-10T11:05:43.891Z,2508.00
2023-01-10T11:06:43.916Z,2380.00
2023-01-10T11:07:44.076Z,2484.00
2023-01-10T11:08:43.985Z,2444.00
2023-01-10T11:09:44.043Z,2664.00
2023-01-10T11:10:44.099Z,2628.00
2023-01-10T11:11:44.039Z,1868.00
2023-01-10T11:12:44.049Z,1560.00
2023-01-10T11:13:44.100Z,1640.00
2023-01-10T11:14:44.125Z,1972.00
2023-01-10T11:15:44.118Z,2192.00
2023-01-10T11:16:44.203Z,2268.00
2023-01-10T11:17:44.286Z,2568.00
2023-01-10T11:18:44.239Z,3076.00
2023-01-10T11:19:44.251Z,3096.00
2023-01-10T11:20:44.261Z,2952.00
2023-01-10T11:21:44.279Z,2760.00
2023-01-10T11:22:44.281Z,2344.00
2023-01-10T11:23:44.307Z,2192.00
2023-01-10T11:24:44.271Z,2012.00
2023-01-10T11:25:44.341Z,1828.00
2023-01-10T11:26:44.423Z,1732.00
2023-01-10T11:27:44.399Z,2020.00
2023-01-10T11:28:44.473Z,2508.00
2023-01-10T11:29:44.514Z,3100.00
2023-01-10T11:30:44.521Z,3076.00
2023-01-10T11:31:44.705Z,2952.00
2023-01-10T11:32:44.616Z,3104.00
2023-01-10T11:33:44.592Z,3364.00
2023-01-10T11:34:44.653Z,3348.00
2023-01-10T11:35:44.653Z,3372.00
2023-01-10T11:36:44.712Z,3544.00
2023-01-10T11:37:44.705Z,3980.00
2023-01-10T11:38:44.674Z,3776.00
2023-01-10T11:39:44.663Z,3756.00
2023-01-10T11:40:44.757Z,3844.00
2023-01-10T11:41:44.784Z,3604.00
2023-01-10T11:42:44.783Z,3408.00
2023-01-10T11:43:44.782Z,3100.00
2023-01-10T11:44:44.835Z,2600.00
2023-01-10T11:45:44.902Z,2492.00
2023-01-10T11:46:44.883Z,2408.00
2023-01-10T11:47:45.631Z,2316.00
2023-01-10T11:49:04.420Z,2468.00
2023-01-10T11:49:45.037Z,2460.00
2023-01-10T11:50:44.977Z,2384.00
2023-01-10T11:51:45.069Z,2648.00
2023-01-10T11:52:45.069Z,2684.00
2023-01-10T11:53:45.089Z,2440.00
2023-01-10T11:54:45.060Z,2976.00
2023-01-10T11:55:45.068Z,3552.00
2023-01-10T11:56:45.119Z,3752.00
2023-01-10T11:57:45.122Z,3788.00
2023-01-10T11:58:45.441Z,4104.00
2023-01-10T11:59:45.158Z,4616.00
2023-01-10T12:00:45.189Z,5164.00
2023-01-10T12:01:45.181Z,5680.00
2023-01-10T12:02:45.232Z,5992.00
2023-01-10T12:03:45.336Z,6452.00
2023-01-10T12:04:45.327Z,6604.00
2023-01-10T12:05:45.298Z,7240.00
2023-01-10T12:06:45.468Z,7572.00
2023-01-10T12:07:45.350Z,8080.00
2023-01-10T12:08:45.414Z,8236.00
2023-01-10T12:09:45.460Z,8360.00
2023-01-10T12:10:45.502Z,8204.00
2023-01-10T12:11:45.540Z,8396.00
2023-01-10T12:12:45.587Z,8112.00
2023-01-10T12:13:45.700Z,7908.00
2023-01-10T12:14:45.668Z,7740.00
2023-01-10T12:15:45.683Z,7400.00
2023-01-10T12:16:47.948Z,7208.00
2023-01-10T12:17:45.692Z,7028.00
2023-01-10T12:18:45.694Z,7420.00
2023-01-10T12:19:45.735Z,6716.00
2023-01-10T12:20:45.765Z,6964.00
2023-01-10T12:21:45.760Z,6456.00
2023-01-10T12:22:45.777Z,6100.00
2023-01-10T12:23:45.859Z,5980.00
2023-01-10T12:24:45.866Z,5816.00
2023-01-10T12:25:45.878Z,6004.00
2023-01-10T12:26:45.922Z,5948.00
2023-01-10T12:27:46.664Z,5988.00
2023-01-10T12:28:45.997Z,5772.00
2023-01-10T12:29:45.989Z,5444.00
2023-01-10T12:30:46.064Z,5004.00
2023-01-10T12:31:46.008Z,5156.00
2023-01-10T12:32:46.055Z,4964.00
2023-01-10T12:33:46.040Z,4548.00
2023-01-10T12:34:46.070Z,4416.00
2023-01-10T12:35:46.091Z,3792.00
2023-01-10T12:36:46.107Z,3660.00
2023-01-10T12:37:46.306Z,3280.00
2023-01-10T12:38:46.209Z,3212.00
2023-01-10T12:39:46.224Z,3336.00
2023-01-10T12:40:46.244Z,3228.00
2023-01-10T12:41:46.333Z,3416.00
2023-01-10T12:42:46.325Z,3312.00
2023-01-10T12:43:46.380Z,3120.00
2023-01-10T12:44:46.409Z,3288.00
2023-01-10T12:45:51.068Z,3180.00
2023-01-10T12:49:43.704Z,2048.00
2023-01-10T12:50:38.690Z,1968.00
2023-01-10T12:51:38.566Z,1788.00
2023-01-10T12:52:38.597Z,1652.00
2023-01-10T12:53:38.661Z,1804.00
2023-01-10T12:54:38.754Z,1780.00
2023-01-10T12:55:38.770Z,1992.00
2023-01-10T12:56:39.683Z,2192.00
2023-01-10T12:57:45.224Z,2236.00
2023-01-10T12:58:38.884Z,2632.00
2023-01-10T12:59:38.887Z,2784.00
2023-01-10T13:00:48.363Z,2688.00
2023-01-10T13:01:39.073Z,2424.00
2023-01-10T13:02:39.055Z,2420.00
2023-01-10T13:03:39.157Z,2444.00
2023-01-10T13:04:39.140Z,2560.00
2023-01-10T13:05:39.120Z,2120.00
2023-01-10T13:06:39.163Z,2172.00
2023-01-10T13:07:39.192Z,2204.00
2023-01-10T13:08:39.805Z,2468.00
2023-01-10T13:09:39.234Z,2540.00
2023-01-10T13:10:39.274Z,2620.00